HTDA/DAR METAR and TAF weather

Enter ICAO airport designator
Station Type Date Time Source
HTDA METAR 2020/12/05 23:00 UTC NOAA

HTDA 052300Z 16005KT 9999 FEW011 24/23 Q1012 NOSIG


Station Type Date Time Source
HTDA Decoded METAR 2020/12/05 23:00 UTC NOAA

Dar Es Salaam Airport, Tanzania (HTDA) 06-52S 039-12E 55M
Dec 05, 2020 - 06:00 PM EST / 2020.12.05 2300 UTC
Wind: from the SSE (160 degrees) at 6 MPH (5 KT):0
Visibility: greater than 7 mile(s):0
Sky conditions: mostly clear
Temperature: 75 F (24 C)
Dew Point: 73 F (23 C)
Relative Humidity: 94%
Pressure (altimeter): 29.88 in. Hg (1012 hPa)
ob: HTDA 052300Z 16005KT 9999 FEW011 24/23 Q1012 NOSIG
cycle: 23

Station Type Date Time Source
HTDA TAF 2020/12/06 00:00 UTC NOAA

HTDA 052300Z 0600/0706 04005KT 9999 SCT013
BECMG 0605/0608 BKN018 FEW020CB

Example: see airport list